createdAt,value
2022-08-19T00:00:41.435Z,10.82
2022-08-19T00:03:09.614Z,10.63
2022-08-19T00:05:37.851Z,10.25
2022-08-19T00:08:06.229Z,11.40
2022-08-19T00:10:35.073Z,11.35
2022-08-19T00:13:05.241Z,9.73
2022-08-19T00:15:33.939Z,10.80
2022-08-19T00:18:02.133Z,10.38
2022-08-19T00:20:30.407Z,10.65
2022-08-19T00:22:59.096Z,10.70
2022-08-19T00:25:30.583Z,10.43
2022-08-19T00:28:00.001Z,10.23
2022-08-19T00:30:29.749Z,11.95
2022-08-19T00:32:57.926Z,10.45
2022-08-19T00:35:26.216Z,11.52
2022-08-19T00:37:54.350Z,11.07
2022-08-19T00:40:22.936Z,11.13
2022-08-19T00:42:54.882Z,12.65
2022-08-19T00:45:24.491Z,10.85
2022-08-19T00:47:54.099Z,9.93
2022-08-19T00:50:22.489Z,9.85
2022-08-19T00:52:51.978Z,11.35
2022-08-19T00:55:22.039Z,13.52
2022-08-19T00:57:52.615Z,10.52
2022-08-19T01:00:21.122Z,11.25
2022-08-19T01:02:49.323Z,10.68
2022-08-19T01:05:21.798Z,11.32
2022-08-19T01:07:50.176Z,11.00
2022-08-19T01:10:20.192Z,11.18
2022-08-19T01:12:48.543Z,11.27
2022-08-19T01:15:18.185Z,13.38
2022-08-19T01:17:46.375Z,11.70
2022-08-19T01:20:16.050Z,12.50
2022-08-19T01:22:47.558Z,12.05
2022-08-19T01:25:16.784Z,14.18
2022-08-19T01:27:48.801Z,11.65
2022-08-19T01:30:18.921Z,11.90
2022-08-19T01:32:47.144Z,11.35
2022-08-19T01:35:16.784Z,11.70
2022-08-19T01:37:48.417Z,12.10
2022-08-19T01:40:16.784Z,12.27
2022-08-19T01:42:44.972Z,14.00
2022-08-19T01:45:13.133Z,12.05
2022-08-19T01:47:41.244Z,13.38
2022-08-19T01:50:10.438Z,13.05
2022-08-19T01:52:38.804Z,12.23
2022-08-19T01:55:10.060Z,12.85
2022-08-19T01:57:38.411Z,12.85
2022-08-19T02:00:07.448Z,11.75
2022-08-19T02:02:35.645Z,13.43
2022-08-19T02:05:03.808Z,13.00
2022-08-19T02:07:33.837Z,12.07
2022-08-19T02:10:08.904Z,12.65
2022-08-19T02:12:41.741Z,12.57
2022-08-19T02:15:10.579Z,11.57
2022-08-19T02:17:38.803Z,12.25
2022-08-19T02:20:08.632Z,11.82
2022-08-19T02:22:36.855Z,12.88
2022-08-19T02:25:06.747Z,13.35
2022-08-19T02:27:35.397Z,14.02
2022-08-19T02:30:06.833Z,13.88
2022-08-19T02:32:35.043Z,13.18
2022-08-19T02:35:12.844Z,12.32
2022-08-19T02:37:58.399Z,12.82
2022-08-19T02:40:26.665Z,12.35
2022-08-19T02:42:54.910Z,12.07
2022-08-19T02:45:24.592Z,12.65
2022-08-19T02:47:52.788Z,14.32
2022-08-19T02:50:21.083Z,13.57
2022-08-19T02:52:49.266Z,12.48
2022-08-19T02:55:17.589Z,12.35
2022-08-19T02:57:45.788Z,12.50
2022-08-19T03:00:14.694Z,13.00
2022-08-19T03:02:44.212Z,12.38
2022-08-19T03:05:12.481Z,12.65
2022-08-19T03:07:40.728Z,12.90
2022-08-19T03:10:09.528Z,12.32
2022-08-19T03:12:38.615Z,13.05
2022-08-19T03:15:08.476Z,13.13
2022-08-19T03:17:36.803Z,11.93
2022-08-19T03:20:07.495Z,13.18
2022-08-19T03:22:35.697Z,12.95
2022-08-19T03:25:04.642Z,12.32
2022-08-19T03:27:33.017Z,14.32
2022-08-19T03:30:03.593Z,13.82
2022-08-19T03:32:35.001Z,13.77
2022-08-19T03:35:03.569Z,15.30
2022-08-19T03:37:33.207Z,13.70
2022-08-19T03:40:01.431Z,12.38
2022-08-19T03:42:38.531Z,12.73
2022-08-19T03:45:17.499Z,13.15
2022-08-19T03:47:46.533Z,13.23
2022-08-19T03:50:14.817Z,13.25
2022-08-19T03:52:45.894Z,12.80
2022-08-19T03:55:15.433Z,12.80
2022-08-19T03:57:43.590Z,13.32
2022-08-19T04:00:14.107Z,13.02
2022-08-19T04:02:42.963Z,12.82
2022-08-19T04:05:29.595Z,13.27
2022-08-19T04:08:00.107Z,12.73
2022-08-19T04:10:28.758Z,12.32
2022-08-19T04:12:57.030Z,13.20
2022-08-19T04:15:25.293Z,11.82
2022-08-19T04:17:54.228Z,13.55
2022-08-19T04:20:22.455Z,11.95
2022-08-19T04:22:50.644Z,12.73
2022-08-19T04:25:20.460Z,12.80
2022-08-19T04:27:49.577Z,12.32
2022-08-19T04:30:18.782Z,11.45
2022-08-19T04:32:47.008Z,12.80
2022-08-19T04:35:17.427Z,12.25
2022-08-19T04:37:47.540Z,12.05
2022-08-19T04:40:33.556Z,12.02
2022-08-19T04:43:03.156Z,12.25
2022-08-19T04:45:38.802Z,11.07
2022-08-19T04:48:26.432Z,12.10
2022-08-19T04:50:58.722Z,10.43
2022-08-19T04:53:29.649Z,12.18
2022-08-19T04:56:07.991Z,10.85
2022-08-19T04:58:37.983Z,11.30
2022-08-19T05:01:06.203Z,13.77
2022-08-19T05:03:34.877Z,11.98
2022-08-19T05:06:08.414Z,10.50
2022-08-19T05:08:37.234Z,12.15
2022-08-19T05:11:10.295Z,11.20
2022-08-19T05:13:44.051Z,11.30
2022-08-19T05:16:12.550Z,10.75
2022-08-19T05:18:58.347Z,11.10
2022-08-19T05:21:43.974Z,10.57
2022-08-19T05:24:15.016Z,10.50
2022-08-19T05:26:46.569Z,11.52
2022-08-19T05:29:16.538Z,10.93
2022-08-19T05:31:44.859Z,10.98
2022-08-19T05:34:20.126Z,10.80
2022-08-19T05:36:49.119Z,11.95
2022-08-19T05:39:18.437Z,13.45
2022-08-19T05:41:47.387Z,11.45
2022-08-19T05:44:17.248Z,11.05
2022-08-19T05:46:47.960Z,10.43
2022-08-19T05:49:16.722Z,10.60
2022-08-19T05:51:45.633Z,10.85
2022-08-19T05:54:14.448Z,10.60
2022-08-19T05:56:42.657Z,11.43
2022-08-19T05:59:12.593Z,11.05
2022-08-19T06:01:44.781Z,11.45
2022-08-19T06:04:14.385Z,11.15
2022-08-19T06:06:42.590Z,11.05
2022-08-19T06:09:11.504Z,10.02
2022-08-19T06:11:40.687Z,10.38
2022-08-19T06:14:15.067Z,10.68
2022-08-19T06:16:46.346Z,10.82
2022-08-19T06:19:17.054Z,11.15
2022-08-19T06:21:46.267Z,12.05
2022-08-19T06:24:15.867Z,10.32
2022-08-19T06:29:23.540Z,10.48
2022-08-19T06:31:54.659Z,12.27
2022-08-19T06:34:22.875Z,11.43
2022-08-19T06:36:52.308Z,10.25
2022-08-19T06:39:21.456Z,10.45
2022-08-19T06:41:52.510Z,10.43
2022-08-19T06:44:23.178Z,10.50
2022-08-19T06:46:55.736Z,10.60
2022-08-19T06:49:23.900Z,10.63
2022-08-19T06:51:52.381Z,9.70
2022-08-19T06:54:20.640Z,10.20
2022-08-19T06:56:49.115Z,10.88
2022-08-19T06:59:18.829Z,11.90
2022-08-19T07:01:49.193Z,13.10
2022-08-19T07:04:20.431Z,11.63
2022-08-19T07:06:55.333Z,11.00
2022-08-19T07:09:23.893Z,10.55
2022-08-19T07:11:53.477Z,11.02
2022-08-19T07:14:23.329Z,13.13
2022-08-19T07:16:52.505Z,11.70
2022-08-19T07:19:22.193Z,13.85
2022-08-19T07:21:50.997Z,13.23
2022-08-19T07:24:19.479Z,13.48
2022-08-19T07:26:51.930Z,14.70
2022-08-19T07:29:25.574Z,12.65
2022-08-19T07:31:56.910Z,11.63
2022-08-19T07:34:26.906Z,11.10
2022-08-19T07:36:55.248Z,12.75
2022-08-19T07:39:25.377Z,13.20
2022-08-19T07:41:54.049Z,11.00
2022-08-19T07:44:22.332Z,12.32
2022-08-19T07:46:53.260Z,11.05
2022-08-19T07:49:21.668Z,11.60
2022-08-19T07:51:52.786Z,14.32
2022-08-19T07:54:22.980Z,11.70
2022-08-19T07:56:52.453Z,11.75
2022-08-19T07:59:21.605Z,13.23
2022-08-19T08:01:51.159Z,11.60
2022-08-19T08:04:37.103Z,12.13
2022-08-19T08:07:31.641Z,12.73
2022-08-19T08:10:00.536Z,11.95
2022-08-19T08:12:34.935Z,12.57
2022-08-19T08:15:08.185Z,11.00
2022-08-19T08:17:49.712Z,11.27
2022-08-19T08:20:20.070Z,12.18
2022-08-19T08:23:06.984Z,12.65
2022-08-19T08:25:36.444Z,11.73
2022-08-19T08:28:05.112Z,12.52
2022-08-19T08:30:33.895Z,11.65
2022-08-19T08:33:02.605Z,11.10
2022-08-19T08:35:30.962Z,11.68
2022-08-19T08:38:00.561Z,12.73
2022-08-19T08:40:31.333Z,12.68
2022-08-19T08:45:41.071Z,12.80
2022-08-19T08:48:23.872Z,13.73
2022-08-19T08:50:53.742Z,12.90
2022-08-19T08:53:29.214Z,12.93
2022-08-19T08:55:58.629Z,12.27
2022-08-19T08:58:30.313Z,11.65
2022-08-19T09:00:59.549Z,12.20
2022-08-19T09:03:31.344Z,12.65
2022-08-19T09:06:03.698Z,10.93
2022-08-19T09:08:41.622Z,12.73
2022-08-19T09:11:42.730Z,11.20
2022-08-19T09:14:23.564Z,13.68
2022-08-19T09:16:58.994Z,11.48
2022-08-19T09:19:27.174Z,12.23
2022-08-19T09:21:57.684Z,13.07
2022-08-19T09:24:31.200Z,12.27
2022-08-19T09:26:59.583Z,12.85
2022-08-19T09:29:27.969Z,13.45
2022-08-19T09:31:56.074Z,14.73
2022-08-19T09:34:24.206Z,11.65
2022-08-19T09:36:54.116Z,10.85
2022-08-19T09:39:23.059Z,11.10
2022-08-19T09:41:52.631Z,10.07
2022-08-19T09:44:21.255Z,11.35
2022-08-19T09:46:50.112Z,10.35
2022-08-19T09:49:19.169Z,10.68
2022-08-19T09:51:51.213Z,10.63
2022-08-19T09:54:25.052Z,9.07
2022-08-19T09:56:55.142Z,10.93
2022-08-19T09:59:23.455Z,8.50
2022-08-19T10:01:52.043Z,11.32
2022-08-19T10:04:22.217Z,10.10
2022-08-19T10:06:53.603Z,10.05
2022-08-19T10:09:26.226Z,12.75
2022-08-19T10:12:03.972Z,9.02
2022-08-19T10:14:32.233Z,8.45
2022-08-19T10:17:01.383Z,10.05
2022-08-19T10:19:55.043Z,9.27
2022-08-19T10:22:25.787Z,11.40
2022-08-19T10:24:54.639Z,11.60
2022-08-19T10:27:24.367Z,9.30
2022-08-19T10:29:54.879Z,15.05
2022-08-19T10:32:33.860Z,31.05
2022-08-19T10:35:03.074Z,47.08
2022-08-19T10:37:34.482Z,41.47
2022-08-19T10:40:04.425Z,31.08
2022-08-19T10:42:34.048Z,35.40
2022-08-19T10:45:02.419Z,13.82
2022-08-19T10:47:33.183Z,12.07
2022-08-19T10:50:18.953Z,13.48
2022-08-19T10:52:49.161Z,12.13
2022-08-19T10:55:50.793Z,11.13
2022-08-19T10:58:26.112Z,10.77
2022-08-19T11:00:55.378Z,10.05
2022-08-19T11:03:23.724Z,8.30
2022-08-19T11:06:00.431Z,10.40
2022-08-19T11:08:28.673Z,8.57
2022-08-19T11:10:58.613Z,7.75
2022-08-19T11:13:28.481Z,11.40
2022-08-19T11:16:04.002Z,10.10
2022-08-19T11:18:37.146Z,13.82
2022-08-19T11:21:09.876Z,9.07
2022-08-19T11:23:38.110Z,12.60
2022-08-19T11:26:06.646Z,8.43
2022-08-19T11:28:36.341Z,8.07
2022-08-19T11:31:05.165Z,10.60
2022-08-19T11:33:33.794Z,7.50
2022-08-19T11:36:02.581Z,10.07
2022-08-19T11:38:31.454Z,6.78
2022-08-19T11:40:59.854Z,8.00
2022-08-19T11:43:28.337Z,12.80
2022-08-19T11:45:57.882Z,7.10
2022-08-19T11:48:26.518Z,8.45
2022-08-19T11:50:56.406Z,6.95
2022-08-19T11:53:24.912Z,11.55
2022-08-19T11:55:57.197Z,8.90
2022-08-19T11:58:25.959Z,7.95
2022-08-19T12:00:54.661Z,9.82
2022-08-19T12:03:24.253Z,7.75
2022-08-19T12:05:52.464Z,7.72
2022-08-19T12:08:20.714Z,12.90
2022-08-19T12:10:48.904Z,8.65
2022-08-19T12:13:19.636Z,7.60
2022-08-19T12:15:48.413Z,15.32
2022-08-19T12:18:16.611Z,7.15
2022-08-19T12:20:47.715Z,7.63
2022-08-19T12:23:16.267Z,8.20
2022-08-19T12:25:49.615Z,11.05
2022-08-19T12:28:17.843Z,8.88
2022-08-19T12:30:46.046Z,11.35
2022-08-19T12:33:15.055Z,6.63
2022-08-19T12:35:45.646Z,10.63
2022-08-19T12:38:15.673Z,12.48
2022-08-19T12:40:44.243Z,8.25
2022-08-19T12:43:12.696Z,9.88
2022-08-19T12:45:41.053Z,12.48
2022-08-19T12:48:34.364Z,11.10
2022-08-19T12:50:58.794Z,10.82
2022-08-19T12:53:29.767Z,12.02
2022-08-19T12:55:58.539Z,9.57
2022-08-19T12:58:27.556Z,7.80
2022-08-19T13:00:55.854Z,9.82
2022-08-19T13:03:28.543Z,18.70
2022-08-19T13:05:56.975Z,16.10
2022-08-19T13:08:25.250Z,19.95
2022-08-19T13:10:55.328Z,29.42
2022-08-19T13:13:23.866Z,100.95
2022-08-19T13:15:52.062Z,95.63
2022-08-19T13:18:20.346Z,31.98
2022-08-19T13:20:52.704Z,12.48
2022-08-19T13:23:21.367Z,12.02
2022-08-19T13:25:59.952Z,32.90
2022-08-19T13:28:48.154Z,9.55
2022-08-19T13:31:35.735Z,10.05
2022-08-19T13:34:04.312Z,8.95
2022-08-19T13:36:32.757Z,9.15
2022-08-19T13:39:01.014Z,12.13
2022-08-19T13:41:30.719Z,13.55
2022-08-19T13:43:58.990Z,8.18
2022-08-19T13:46:27.148Z,11.70
2022-08-19T13:48:56.249Z,11.27
2022-08-19T13:51:24.417Z,10.63
2022-08-19T13:53:52.706Z,12.10
2022-08-19T13:56:25.511Z,10.02
2022-08-19T13:58:59.330Z,9.73
2022-08-19T14:01:28.640Z,11.85
2022-08-19T14:03:56.919Z,7.57
2022-08-19T14:06:26.476Z,11.85
2022-08-19T14:08:54.932Z,11.55
2022-08-19T14:11:23.939Z,7.43
2022-08-19T14:13:52.316Z,10.23
2022-08-19T14:16:22.652Z,6.55
2022-08-19T14:18:50.871Z,9.90
2022-08-19T14:21:21.135Z,9.63
2022-08-19T14:23:49.403Z,10.70
2022-08-19T14:26:18.751Z,9.98
2022-08-19T14:28:47.212Z,7.88
2022-08-19T14:31:20.256Z,7.68
2022-08-19T14:33:50.003Z,13.18
2022-08-19T14:36:18.185Z,12.32
2022-08-19T14:38:46.454Z,12.48
2022-08-19T14:41:17.930Z,9.30
2022-08-19T14:43:48.302Z,11.68
2022-08-19T14:46:16.974Z,8.30
2022-08-19T14:48:45.382Z,8.68
2022-08-19T14:51:15.294Z,8.63
2022-08-19T14:53:43.623Z,8.98
2022-08-19T14:56:11.939Z,8.88
2022-08-19T14:58:41.330Z,11.20
2022-08-19T15:01:09.621Z,10.05
2022-08-19T15:03:37.850Z,8.75
2022-08-19T15:06:06.798Z,10.57
2022-08-19T15:08:37.991Z,10.70
2022-08-19T15:11:10.669Z,9.00
2022-08-19T15:13:39.112Z,10.15
2022-08-19T15:16:07.785Z,12.00
2022-08-19T15:18:46.808Z,9.70
2022-08-19T15:21:15.403Z,14.15
2022-08-19T15:23:45.532Z,11.52
2022-08-19T15:26:16.148Z,14.85
2022-08-19T15:28:44.714Z,7.72
2022-08-19T15:31:17.171Z,9.55
2022-08-19T15:33:58.578Z,10.52
2022-08-19T15:36:27.360Z,13.88
2022-08-19T15:38:57.124Z,11.75
2022-08-19T15:41:28.121Z,11.80
2022-08-19T15:43:57.244Z,21.58
2022-08-19T15:46:26.631Z,10.35
2022-08-19T15:48:57.314Z,9.45
2022-08-19T15:51:28.229Z,10.20
2022-08-19T15:53:58.114Z,13.40
2022-08-19T15:56:27.541Z,10.77
2022-08-19T15:59:13.622Z,10.70
2022-08-19T16:01:59.117Z,10.32
2022-08-19T16:04:44.725Z,10.68
2022-08-19T16:07:13.014Z,10.50
2022-08-19T16:09:42.657Z,8.88
2022-08-19T16:12:11.045Z,8.52
2022-08-19T16:14:39.825Z,12.05
2022-08-19T16:17:11.695Z,10.43
2022-08-19T16:19:40.599Z,9.07
2022-08-19T16:22:10.317Z,8.05
2022-08-19T16:24:39.217Z,11.48
2022-08-19T16:27:08.835Z,11.68
2022-08-19T16:29:39.034Z,11.05
2022-08-19T16:32:10.291Z,11.23
2022-08-19T16:34:39.170Z,8.90
2022-08-19T16:37:07.606Z,11.52
2022-08-19T16:39:35.951Z,10.38
2022-08-19T16:42:07.507Z,12.75
2022-08-19T16:44:39.430Z,12.35
2022-08-19T16:47:07.769Z,14.02
2022-08-19T16:49:54.129Z,12.52
2022-08-19T16:52:27.238Z,11.20
2022-08-19T16:54:55.456Z,11.80
2022-08-19T16:57:24.570Z,11.82
2022-08-19T16:59:54.290Z,11.75
2022-08-19T17:02:23.626Z,9.35
2022-08-19T17:04:59.329Z,10.88
2022-08-19T17:07:28.070Z,11.85
2022-08-19T17:09:56.457Z,14.18
2022-08-19T17:12:32.192Z,12.10
2022-08-19T17:15:02.638Z,10.57
2022-08-19T17:17:31.162Z,14.52
2022-08-19T17:20:00.465Z,11.25
2022-08-19T17:22:28.910Z,13.18
2022-08-19T17:24:58.391Z,10.13
2022-08-19T17:27:32.473Z,11.23
2022-08-19T17:30:02.899Z,15.43
2022-08-19T17:32:32.543Z,17.20
2022-08-19T17:35:00.739Z,17.35
2022-08-19T17:37:29.673Z,19.73
2022-08-19T17:39:58.172Z,14.23
2022-08-19T17:42:26.476Z,14.57
2022-08-19T17:44:55.681Z,23.23
2022-08-19T17:47:25.318Z,16.25
2022-08-19T17:49:53.866Z,22.17
2022-08-19T17:52:22.166Z,22.85
2022-08-19T17:54:50.340Z,13.00
2022-08-19T17:57:18.805Z,12.30
2022-08-19T17:59:47.075Z,11.20
2022-08-19T18:02:16.276Z,10.45
2022-08-19T18:04:50.316Z,10.00
2022-08-19T18:07:21.529Z,9.07
2022-08-19T18:09:52.722Z,7.82
2022-08-19T18:12:23.638Z,8.77
2022-08-19T18:14:51.884Z,8.45
2022-08-19T18:17:23.085Z,13.85
2022-08-19T18:19:52.726Z,12.77
2022-08-19T18:22:25.104Z,10.32
2022-08-19T18:24:53.523Z,8.13
2022-08-19T18:27:22.607Z,10.38
2022-08-19T18:29:51.173Z,6.53
2022-08-19T18:32:23.731Z,7.43
2022-08-19T18:34:54.228Z,9.65
2022-08-19T18:37:22.775Z,16.02
2022-08-19T18:40:08.659Z,11.55
2022-08-19T18:42:54.685Z,14.25
2022-08-19T18:45:40.676Z,12.70
2022-08-19T18:48:29.816Z,11.68
2022-08-19T18:51:00.473Z,7.93
2022-08-19T18:53:29.637Z,8.63
2022-08-19T18:55:58.024Z,13.05
2022-08-19T18:58:33.919Z,8.57
2022-08-19T19:01:03.173Z,8.45
2022-08-19T19:03:31.649Z,10.52
2022-08-19T19:06:01.556Z,7.50
2022-08-19T19:08:30.086Z,6.30
2022-08-19T19:11:01.135Z,7.20
2022-08-19T19:13:29.995Z,11.18
2022-08-19T19:15:58.366Z,5.80
2022-08-19T19:18:26.802Z,8.07
2022-08-19T19:20:54.993Z,7.97
2022-08-19T19:23:24.671Z,10.48
2022-08-19T19:25:53.529Z,8.57
2022-08-19T19:28:25.854Z,9.70
2022-08-19T19:30:54.561Z,9.57
2022-08-19T19:33:22.757Z,12.85
2022-08-19T19:35:51.249Z,12.27
2022-08-19T19:38:19.577Z,9.93
2022-08-19T19:40:49.213Z,8.63
2022-08-19T19:43:18.434Z,8.18
2022-08-19T19:45:48.483Z,11.88
2022-08-19T19:48:16.772Z,8.48
2022-08-19T19:50:45.227Z,11.15
2022-08-19T19:53:15.154Z,11.18
2022-08-19T19:55:43.445Z,8.93
2022-08-19T19:58:13.163Z,8.45
2022-08-19T20:00:41.677Z,9.55
2022-08-19T20:03:10.593Z,9.40
2022-08-19T20:05:38.734Z,13.13
2022-08-19T20:08:24.477Z,8.43
2022-08-19T20:10:52.649Z,8.45
2022-08-19T20:13:22.293Z,10.73
2022-08-19T20:15:50.612Z,9.95
2022-08-19T20:18:18.805Z,10.60
2022-08-19T20:20:50.228Z,9.20
2022-08-19T20:23:18.494Z,6.85
2022-08-19T20:25:46.924Z,8.52
2022-08-19T20:28:15.180Z,9.13
2022-08-19T20:30:46.447Z,7.85
2022-08-19T20:33:16.309Z,9.68
2022-08-19T20:35:45.410Z,11.35
2022-08-19T20:38:13.823Z,10.27
2022-08-19T20:40:42.339Z,8.10
2022-08-19T20:43:10.972Z,11.65
2022-08-19T20:45:39.320Z,14.07
2022-08-19T20:48:10.521Z,10.13
2022-08-19T20:50:38.858Z,12.18
2022-08-19T20:53:12.397Z,13.15
2022-08-19T20:55:40.690Z,12.07
2022-08-19T20:58:12.081Z,12.35
2022-08-19T21:00:40.305Z,13.15
2022-08-19T21:03:09.975Z,15.10
2022-08-19T21:05:38.115Z,12.52
2022-08-19T21:08:06.438Z,16.02
2022-08-19T21:10:34.566Z,23.77
2022-08-19T21:13:03.888Z,14.27
2022-08-19T21:15:32.124Z,16.15
2022-08-19T21:18:00.391Z,16.23
2022-08-19T21:20:29.958Z,17.08
2022-08-19T21:22:58.232Z,13.98
2022-08-19T21:25:26.543Z,15.02
2022-08-19T21:27:54.766Z,17.95
2022-08-19T21:30:23.166Z,18.05
2022-08-19T21:32:52.642Z,23.67
2022-08-19T21:35:21.151Z,17.52
2022-08-19T21:37:51.020Z,16.13
2022-08-19T21:40:19.753Z,14.32
2022-08-19T21:42:48.158Z,13.23
2022-08-19T21:45:17.496Z,10.05
2022-08-19T21:47:45.964Z,12.75
2022-08-19T21:50:14.239Z,11.63
2022-08-19T21:52:42.561Z,10.88
2022-08-19T21:55:12.688Z,13.77
2022-08-19T21:57:41.566Z,11.48
2022-08-19T22:00:13.085Z,12.40
2022-08-19T22:02:42.565Z,10.98
2022-08-19T22:05:11.054Z,13.57
2022-08-19T22:07:39.451Z,11.93
2022-08-19T22:10:08.144Z,11.80
2022-08-19T22:12:39.686Z,10.73
2022-08-19T22:15:20.670Z,12.30
2022-08-19T22:17:49.107Z,10.93
2022-08-19T22:20:20.869Z,11.10
2022-08-19T22:22:50.583Z,10.82
2022-08-19T22:25:31.875Z,11.18
2022-08-19T22:28:02.187Z,11.68
2022-08-19T22:30:32.385Z,10.52
2022-08-19T22:33:08.598Z,15.50
2022-08-19T22:35:38.077Z,12.85
2022-08-19T22:38:07.349Z,13.57
2022-08-19T22:40:37.018Z,13.00
2022-08-19T22:43:07.482Z,14.80
2022-08-19T22:45:36.380Z,13.27
2022-08-19T22:48:04.737Z,11.30
2022-08-19T22:50:32.880Z,14.68
2022-08-19T22:53:00.707Z,15.13
2022-08-19T22:55:28.930Z,14.43
2022-08-19T22:57:57.465Z,12.35
2022-08-19T23:00:28.349Z,31.83
2022-08-19T23:02:56.863Z,14.45
2022-08-19T23:05:26.422Z,11.23
2022-08-19T23:07:57.429Z,12.13
2022-08-19T23:10:26.589Z,15.57
2022-08-19T23:12:56.996Z,12.32
2022-08-19T23:15:27.822Z,11.57
2022-08-19T23:17:57.606Z,13.05
2022-08-19T23:20:27.159Z,11.88
2022-08-19T23:22:55.716Z,11.55
2022-08-19T23:25:25.036Z,11.93
2022-08-19T23:28:10.717Z,15.30
2022-08-19T23:30:43.744Z,12.90
2022-08-19T23:33:16.240Z,10.90
2022-08-19T23:35:44.488Z,15.13
2022-08-19T23:38:12.704Z,12.55
2022-08-19T23:40:41.559Z,16.15
2022-08-19T23:43:10.371Z,17.17
2022-08-19T23:45:40.078Z,14.43
2022-08-19T23:48:08.411Z,11.95
2022-08-19T23:50:37.344Z,13.32
2022-08-19T23:53:05.659Z,12.52
2022-08-19T23:55:35.604Z,13.95
2022-08-19T23:58:03.780Z,13.40
